• Join FlightAware (Why Join?)
  • Login
  • US Flag 
02:11PM EDT


 

Airport Tracker/Info


-or-


 

Live Flight TrackerFlight Track Log ✈ UAL4498 ✈ 03-Dec-2013 ✈ KEWR - KPWM

Flight Track Log - Related Links

Times and Time Zones

All times are in EST time to prevent confusion due to time zone crossing. See the UAL4498 flight status page for this flight to view local times or setup timezone preferences in your user account.

Time Position Orientation Groundspeed Altitude Reporting Facility
EST Latitude Longitude Course Direction KTS MPH feet Rate Location/Type
07:15PM 40.6333 -74.2000 45° Northeast 194 223 2,600  Level New York TRACON
07:16PM 40.6667 -74.2167 339° North 221 254 5,000 2,040 Climbing New York TRACON
07:17PM 40.7333 -74.1667 30° Northeast 261 300 6,900 2,100 Climbing New York TRACON
07:18PM 40.7667 -74.0833 62° Northeast 282 325 9,300 1,680 Climbing New York TRACON
07:19PM 40.8167 -74.0000 52° Northeast 314 361 10,100 540 Climbing New York TRACON
07:20PM 41.0883 -73.6809 45° Northeast  Level Estimated
07:20PM 40.8667 -73.8833 60° Northeast 365 420 10,400  Level New York TRACON
07:22PM 41.0172 -73.7147 40° Northeast 342 394 14,000 1,500 Climbing Boston Center
07:23PM 41.1006 -73.6436 33° Northeast 354 407 15,300 1,440 Climbing Boston Center
07:24PM 41.1903 -73.5656 33° Northeast 359 413 17,000 1,500 Climbing Boston Center
07:25PM 41.2731 -73.4942 33° Northeast 357 411 18,500 1,380 Climbing Boston Center
07:26PM 41.3472 -73.4306 33° Northeast 357 411 19,900 1,200 Climbing Boston Center
07:27PM 41.4367 -73.3758 25° Northeast 364 419 21,000 480 Climbing Boston Center
07:28PM 41.5444 -73.3733 North 358 412 21,000  Level Boston Center
07:29PM 41.6517 -73.3714 North 380 437 21,000  Level Boston Center
07:30PM 41.7572 -73.3681 North 380 437 21,000  Level Boston Center
07:31PM 41.8606 -73.3653 North 373 429 21,000  Level Boston Center
07:32PM 41.9658 -73.3636 North 377 434 21,000  Level Boston Center
07:33PM 42.0875 -73.3611 North 388 447 21,000  Level Boston Center
07:35PM 42.1636 -73.2191 54° Northeast  Level Estimated
07:36PM 42.4289 -73.3556 54° Northeast 394 453 21,000  Level Boston Center
07:38PM 42.4901 -73.2151 59° Northeast  Level FlightAware Approximate
07:38PM 42.6222 -73.2211 59° Northeast 433 498 21,000  Level Boston Center
07:39PM 42.6842 -73.0750 60° Northeast 441 507 21,000  Level Boston Center
07:40PM 42.7469 -72.9222 61° Northeast 439 505 21,000  Level Boston Center
07:41PM 42.8072 -72.7778 60° Northeast 439 505 21,000  Level Boston Center
07:42PM 42.8664 -72.6331 61° Northeast 439 505 21,000  Level Boston Center
07:43PM 42.9247 -72.4931 60° Northeast 438 504 21,000  Level Boston Center
07:44PM 42.9844 -72.3481 61° Northeast 438 504 21,000  Level Boston Center
07:45PM 43.0425 -72.1997 62° Northeast 443 510 21,000  Level Boston Center
07:46PM 43.1003 -72.0531 62° Northeast 441 507 21,000  Level Boston Center
07:47PM 43.1603 -71.9103 60° Northeast 437 503 21,000 -360 Level Boston Center
07:48PM 43.2147 -71.7656 63° Northeast 430 495 20,300 -1,680 Descending Boston Center
07:49PM 43.2847 -71.5942 61° Northeast 425 489 17,600 -2,460 Descending Boston Center
07:50PM 43.3389 -71.4578 61° Northeast 411 473 15,300 -2,220 Descending Boston Center
07:52PM 43.3914 -71.3253 61° Northeast 398 458 13,200 -1,800 Descending Boston Center
07:53PM 43.4422 -71.1964 61° Northeast 387 445 11,600 -1,080 Descending Boston Center
07:54PM 43.4875 -71.0525 67° East 382 440 11,000 -420 Descending Boston Center
07:55PM 43.5233 -70.9167 70° East 379 436 10,800 -600 Descending Boston Center
07:56PM 43.5358 -70.7989 82° East 312 359 9,900 -960 Descending Boston Center
07:57PM 43.5317 -70.6842 93° East 300 345 8,900 -1,440 Descending Boston Center
07:58PM 43.5256 -70.5681 94° East 285 328 7,000 -1,680 Descending Boston Center
07:59PM 43.5203 -70.4656 94° East 271 312 5,500 -1,500 Descending Boston Center
08:00PM 43.5181 -70.3697 92° East 256 295 3,900 -1,260 Descending Boston Center
08:01PM 43.5381 -70.2814 73° East 242 278 3,000 -540 Descending Boston Center
08:02PM 43.5636 -70.1911 69° East 232 267 2,900 -540 Descending Boston Center
08:03PM 43.6117 -70.2011 351° North 181 208 1,900 -900 Descending Boston Center
08:04PM 43.6383 -70.2350 317° Northwest 133 153 1,100 -720 Descending Boston Center
08:05PM 43.6436 -70.2786 280° West 118 136 500 -480 Descending Boston Center
08:06PM 43.6464 -70.3203 275° West 119 137 200 -300 Descending Boston Center